sensor_id;sensor_type;location;lat;lon;timestamp;pressure;altitude;pressure_sealevel;temperature;humidity
54666;BME280;40566;50.006;36.180;2023-05-24T00:03:42;99546.53;;;16.02;76.43
54666;BME280;40566;50.006;36.180;2023-05-24T00:08:46;99553.44;;;16.03;76.73
54666;BME280;40566;50.006;36.180;2023-05-24T00:13:47;99548.41;;;16.00;76.81
54666;BME280;40566;50.006;36.180;2023-05-24T00:18:48;99552.16;;;15.94;76.68
54666;BME280;40566;50.006;36.180;2023-05-24T00:23:49;99562.53;;;15.96;76.87
54666;BME280;40566;50.006;36.180;2023-05-24T00:28:51;99562.84;;;15.90;76.68
54666;BME280;40566;50.006;36.180;2023-05-24T00:33:51;99573.44;;;15.86;76.46
54666;BME280;40566;50.006;36.180;2023-05-24T00:38:52;99578.81;;;15.83;76.56
54666;BME280;40566;50.006;36.180;2023-05-24T00:43:53;99588.56;;;15.80;76.38
54666;BME280;40566;50.006;36.180;2023-05-24T00:48:54;99585.09;;;15.79;76.48
54666;BME280;40566;50.006;36.180;2023-05-24T00:53:56;99581.03;;;15.74;76.68
54666;BME280;40566;50.006;36.180;2023-05-24T00:58:57;99591.53;;;15.72;76.66
54666;BME280;40566;50.006;36.180;2023-05-24T01:03:57;99584.81;;;15.68;76.99
54666;BME280;40566;50.006;36.180;2023-05-24T01:09:16;99576.88;;;15.70;76.77
54666;BME280;40566;50.006;36.180;2023-05-24T01:19:53;99566.63;;;15.66;76.55
54666;BME280;40566;50.006;36.180;2023-05-24T01:25:06;99572.69;;;15.67;76.42
54666;BME280;40566;50.006;36.180;2023-05-24T01:30:08;99589.25;;;15.66;76.76
54666;BME280;40566;50.006;36.180;2023-05-24T01:35:09;99579.72;;;15.65;76.65
54666;BME280;40566;50.006;36.180;2023-05-24T01:40:11;99577.13;;;15.65;77.02
54666;BME280;40566;50.006;36.180;2023-05-24T01:45:15;99589.47;;;15.61;77.26
54666;BME280;40566;50.006;36.180;2023-05-24T01:50:41;99588.50;;;15.64;76.96
54666;BME280;40566;50.006;36.180;2023-05-24T01:55:47;99592.91;;;15.62;77.22
54666;BME280;40566;50.006;36.180;2023-05-24T02:00:48;99598.13;;;15.62;76.98
54666;BME280;40566;50.006;36.180;2023-05-24T02:05:50;99605.13;;;15.61;77.25
54666;BME280;40566;50.006;36.180;2023-05-24T02:10:51;99606.88;;;15.61;77.22
54666;BME280;40566;50.006;36.180;2023-05-24T02:15:51;99605.13;;;15.61;77.14
54666;BME280;40566;50.006;36.180;2023-05-24T02:20:52;99611.72;;;15.69;77.03
54666;BME280;40566;50.006;36.180;2023-05-24T02:25:54;99608.91;;;15.73;77.21
54666;BME280;40566;50.006;36.180;2023-05-24T02:30:55;99617.16;;;15.81;77.04
54666;BME280;40566;50.006;36.180;2023-05-24T02:35:56;99622.25;;;15.84;77.35
54666;BME280;40566;50.006;36.180;2023-05-24T02:40:57;99620.38;;;15.86;77.51
54666;BME280;40566;50.006;36.180;2023-05-24T02:45:57;99606.34;;;15.89;77.56
54666;BME280;40566;50.006;36.180;2023-05-24T02:50:58;99607.88;;;15.93;77.42
54666;BME280;40566;50.006;36.180;2023-05-24T02:56:02;99603.59;;;15.92;77.55
54666;BME280;40566;50.006;36.180;2023-05-24T03:01:03;99601.88;;;15.91;77.86
54666;BME280;40566;50.006;36.180;2023-05-24T03:06:04;99596.50;;;15.94;77.90
54666;BME280;40566;50.006;36.180;2023-05-24T03:11:06;99604.34;;;15.94;78.01
54666;BME280;40566;50.006;36.180;2023-05-24T03:16:06;99613.63;;;16.00;78.06
54666;BME280;40566;50.006;36.180;2023-05-24T03:21:07;99613.28;;;16.06;77.81
54666;BME280;40566;50.006;36.180;2023-05-24T03:26:08;99611.53;;;16.06;78.13
54666;BME280;40566;50.006;36.180;2023-05-24T03:31:08;99604.31;;;16.12;78.12
54666;BME280;40566;50.006;36.180;2023-05-24T03:36:09;99611.19;;;16.13;78.07
54666;BME280;40566;50.006;36.180;2023-05-24T03:41:10;99617.84;;;16.18;78.13
54666;BME280;40566;50.006;36.180;2023-05-24T03:46:10;99616.63;;;16.25;77.91
54666;BME280;40566;50.006;36.180;2023-05-24T03:51:11;99631.94;;;16.32;78.07
54666;BME280;40566;50.006;36.180;2023-05-24T03:56:11;99631.69;;;16.36;77.78
54666;BME280;40566;50.006;36.180;2023-05-24T04:01:12;99624.06;;;16.49;77.93
54666;BME280;40566;50.006;36.180;2023-05-24T04:06:13;99621.03;;;16.57;77.62
54666;BME280;40566;50.006;36.180;2023-05-24T04:11:13;99620.44;;;16.68;77.54
54666;BME280;40566;50.006;36.180;2023-05-24T04:16:14;99612.19;;;16.75;77.38
54666;BME280;40566;50.006;36.180;2023-05-24T04:21:15;99623.06;;;16.83;77.33
54666;BME280;40566;50.006;36.180;2023-05-24T04:26:16;99618.31;;;16.90;77.76
54666;BME280;40566;50.006;36.180;2023-05-24T04:31:16;99631.84;;;16.98;77.31
54666;BME280;40566;50.006;36.180;2023-05-24T04:36:17;99641.75;;;17.08;77.45
54666;BME280;40566;50.006;36.180;2023-05-24T04:41:18;99638.53;;;17.18;77.34
54666;BME280;40566;50.006;36.180;2023-05-24T04:46:21;99651.06;;;17.28;77.30
54666;BME280;40566;50.006;36.180;2023-05-24T04:51:22;99642.53;;;17.40;76.90
54666;BME280;40566;50.006;36.180;2023-05-24T04:56:23;99645.09;;;17.56;76.87
54666;BME280;40566;50.006;36.180;2023-05-24T05:01:24;99645.50;;;17.78;76.67
54666;BME280;40566;50.006;36.180;2023-05-24T05:06:24;99636.03;;;18.06;76.54
54666;BME280;40566;50.006;36.180;2023-05-24T05:11:25;99620.72;;;18.14;76.18
54666;BME280;40566;50.006;36.180;2023-05-24T05:16:27;99625.09;;;18.14;76.38
54666;BME280;40566;50.006;36.180;2023-05-24T05:21:27;99640.91;;;18.12;76.64
54666;BME280;40566;50.006;36.180;2023-05-24T05:26:28;99633.13;;;18.11;76.68
54666;BME280;40566;50.006;36.180;2023-05-24T05:31:29;99644.28;;;18.14;76.89
54666;BME280;40566;50.006;36.180;2023-05-24T05:36:30;99648.00;;;18.24;76.57
54666;BME280;40566;50.006;36.180;2023-05-24T05:41:31;99649.22;;;18.48;76.51
54666;BME280;40566;50.006;36.180;2023-05-24T05:46:32;99649.47;;;18.57;76.04
54666;BME280;40566;50.006;36.180;2023-05-24T05:51:32;99660.13;;;18.69;75.99
54666;BME280;40566;50.006;36.180;2023-05-24T05:56:33;99661.63;;;18.73;76.06
54666;BME280;40566;50.006;36.180;2023-05-24T06:01:40;99657.22;;;18.73;76.02
54666;BME280;40566;50.006;36.180;2023-05-24T06:06:41;99660.22;;;18.81;76.05
54666;BME280;40566;50.006;36.180;2023-05-24T06:11:43;99647.47;;;18.90;75.87
54666;BME280;40566;50.006;36.180;2023-05-24T06:16:44;99646.06;;;18.98;75.56
54666;BME280;40566;50.006;36.180;2023-05-24T06:21:46;99634.59;;;19.14;75.54
54666;BME280;40566;50.006;36.180;2023-05-24T06:26:48;99635.44;;;19.27;75.13
54666;BME280;40566;50.006;36.180;2023-05-24T06:31:49;99642.84;;;19.48;74.77
54666;BME280;40566;50.006;36.180;2023-05-24T06:36:50;99652.75;;;19.57;74.47
54666;BME280;40566;50.006;36.180;2023-05-24T06:41:52;99658.41;;;19.64;74.37
54666;BME280;40566;50.006;36.180;2023-05-24T06:46:53;99664.94;;;19.71;74.45
54666;BME280;40566;50.006;36.180;2023-05-24T06:51:53;99661.28;;;19.73;74.34
54666;BME280;40566;50.006;36.180;2023-05-24T06:56:56;99658.66;;;19.73;74.36
54666;BME280;40566;50.006;36.180;2023-05-24T07:01:57;99655.56;;;19.67;74.45
54666;BME280;40566;50.006;36.180;2023-05-24T07:06:57;99654.72;;;19.53;74.93
54666;BME280;40566;50.006;36.180;2023-05-24T07:11:58;99653.53;;;19.45;75.10
54666;BME280;40566;50.006;36.180;2023-05-24T07:16:59;99669.41;;;19.56;74.79
54666;BME280;40566;50.006;36.180;2023-05-24T07:21:59;99676.72;;;19.78;74.07
54666;BME280;40566;50.006;36.180;2023-05-24T07:27:00;99675.66;;;19.80;73.83
54666;BME280;40566;50.006;36.180;2023-05-24T07:32:00;99670.78;;;19.61;74.31
54666;BME280;40566;50.006;36.180;2023-05-24T07:37:01;99689.44;;;19.44;74.98
54666;BME280;40566;50.006;36.180;2023-05-24T07:42:02;99703.28;;;19.19;76.17
54666;BME280;40566;50.006;36.180;2023-05-24T07:47:03;99710.84;;;18.96;77.35
54666;BME280;40566;50.006;36.180;2023-05-24T07:52:03;99708.97;;;18.70;78.24
54666;BME280;40566;50.006;36.180;2023-05-24T07:57:05;99697.47;;;18.72;78.55
54666;BME280;40566;50.006;36.180;2023-05-24T08:02:07;99712.56;;;18.83;78.10
54666;BME280;40566;50.006;36.180;2023-05-24T08:07:10;99719.75;;;18.94;78.28
54666;BME280;40566;50.006;36.180;2023-05-24T08:12:11;99723.47;;;19.04;78.07
54666;BME280;40566;50.006;36.180;2023-05-24T08:17:11;99724.97;;;19.08;78.19
54666;BME280;40566;50.006;36.180;2023-05-24T08:22:12;99716.44;;;19.05;78.53
54666;BME280;40566;50.006;36.180;2023-05-24T08:27:13;99714.56;;;19.07;78.95
54666;BME280;40566;50.006;36.180;2023-05-24T08:32:14;99693.66;;;19.19;78.36
54666;BME280;40566;50.006;36.180;2023-05-24T08:37:15;99692.38;;;19.39;77.85
54666;BME280;40566;50.006;36.180;2023-05-24T08:42:20;99670.88;;;19.60;77.61
54666;BME280;40566;50.006;36.180;2023-05-24T08:47:20;99697.94;;;19.88;76.76
54666;BME280;40566;50.006;36.180;2023-05-24T08:52:22;99691.84;;;20.00;76.33
54666;BME280;40566;50.006;36.180;2023-05-24T08:57:25;99691.78;;;20.14;76.28
54666;BME280;40566;50.006;36.180;2023-05-24T09:02:26;99693.34;;;20.43;75.88
54666;BME280;40566;50.006;36.180;2023-05-24T09:07:26;99701.50;;;20.51;75.41
54666;BME280;40566;50.006;36.180;2023-05-24T09:12:30;99686.59;;;20.51;75.90
54666;BME280;40566;50.006;36.180;2023-05-24T09:17:36;99686.06;;;20.59;75.26
54666;BME280;40566;50.006;36.180;2023-05-24T09:22:37;99680.06;;;20.57;75.55
54666;BME280;40566;50.006;36.180;2023-05-24T09:27:40;99679.81;;;20.86;74.58
54666;BME280;40566;50.006;36.180;2023-05-24T09:32:53;99661.59;;;21.19;73.73
54666;BME280;40566;50.006;36.180;2023-05-24T09:37:55;99657.06;;;21.22;73.65
54666;BME280;40566;50.006;36.180;2023-05-24T09:43:07;99677.72;;;21.15;73.94
54666;BME280;40566;50.006;36.180;2023-05-24T09:48:17;99675.56;;;21.20;73.87
54666;BME280;40566;50.006;36.180;2023-05-24T09:53:18;99673.47;;;21.36;72.80
54666;BME280;40566;50.006;36.180;2023-05-24T09:58:21;99691.63;;;21.28;73.06
54666;BME280;40566;50.006;36.180;2023-05-24T10:03:24;99681.47;;;21.24;73.04
54666;BME280;40566;50.006;36.180;2023-05-24T10:08:24;99690.75;;;21.16;72.99
54666;BME280;40566;50.006;36.180;2023-05-24T10:13:26;99688.66;;;21.09;73.01
54666;BME280;40566;50.006;36.180;2023-05-24T10:18:28;99678.81;;;20.99;73.07
54666;BME280;40566;50.006;36.180;2023-05-24T10:23:30;99672.28;;;21.05;72.79
54666;BME280;40566;50.006;36.180;2023-05-24T10:28:34;99670.25;;;21.09;72.32
54666;BME280;40566;50.006;36.180;2023-05-24T10:33:36;99667.75;;;21.07;72.35
54666;BME280;40566;50.006;36.180;2023-05-24T10:38:38;99681.22;;;21.03;72.51
54666;BME280;40566;50.006;36.180;2023-05-24T10:43:45;99671.97;;;20.97;71.97
54666;BME280;40566;50.006;36.180;2023-05-24T10:48:59;99664.44;;;20.92;72.06
54666;BME280;40566;50.006;36.180;2023-05-24T10:54:14;99662.78;;;20.91;71.83
54666;BME280;40566;50.006;36.180;2023-05-24T11:04:40;99653.63;;;20.84;71.33
54666;BME280;40566;50.006;36.180;2023-05-24T11:09:47;99668.06;;;20.78;71.67
54666;BME280;40566;50.006;36.180;2023-05-24T11:14:52;99678.81;;;20.63;72.96
54666;BME280;40566;50.006;36.180;2023-05-24T11:19:53;99683.22;;;20.49;74.06
54666;BME280;40566;50.006;36.180;2023-05-24T11:24:54;99696.06;;;20.41;74.78
54666;BME280;40566;50.006;36.180;2023-05-24T11:29:56;99685.44;;;20.30;75.17
54666;BME280;40566;50.006;36.180;2023-05-24T11:34:58;99692.94;;;20.36;75.40
54666;BME280;40566;50.006;36.180;2023-05-24T11:40:01;99677.97;;;20.49;74.86
54666;BME280;40566;50.006;36.180;2023-05-24T11:45:04;99684.81;;;20.65;74.86
54666;BME280;40566;50.006;36.180;2023-05-24T11:50:06;99669.94;;;20.89;74.21
54666;BME280;40566;50.006;36.180;2023-05-24T11:55:10;99658.78;;;21.10;74.08
54666;BME280;40566;50.006;36.180;2023-05-24T12:00:13;99646.78;;;21.30;73.71
54666;BME280;40566;50.006;36.180;2023-05-24T12:05:23;99652.94;;;21.42;73.75
54666;BME280;40566;50.006;36.180;2023-05-24T12:10:24;99657.78;;;21.48;73.57
54666;BME280;40566;50.006;36.180;2023-05-24T12:15:24;99661.66;;;21.55;73.22
54666;BME280;40566;50.006;36.180;2023-05-24T12:20:29;99642.00;;;21.48;73.62
54666;BME280;40566;50.006;36.180;2023-05-24T12:25:29;99657.94;;;21.33;74.15
54666;BME280;40566;50.006;36.180;2023-05-24T12:30:30;99665.78;;;21.22;74.40
54666;BME280;40566;50.006;36.180;2023-05-24T12:35:31;99670.66;;;21.15;74.37
54666;BME280;40566;50.006;36.180;2023-05-24T12:40:32;99657.81;;;21.11;74.51
54666;BME280;40566;50.006;36.180;2023-05-24T12:45:32;99654.03;;;21.15;74.11
54666;BME280;40566;50.006;36.180;2023-05-24T12:50:33;99653.50;;;21.34;73.58
54666;BME280;40566;50.006;36.180;2023-05-24T12:55:34;99642.41;;;21.42;73.16
54666;BME280;40566;50.006;36.180;2023-05-24T13:00:35;99630.16;;;21.53;72.81
54666;BME280;40566;50.006;36.180;2023-05-24T13:05:36;99627.56;;;21.65;72.51
54666;BME280;40566;50.006;36.180;2023-05-24T13:10:36;99630.09;;;21.77;72.21
54666;BME280;40566;50.006;36.180;2023-05-24T13:15:37;99620.88;;;21.83;71.69
54666;BME280;40566;50.006;36.180;2023-05-24T13:20:38;99624.50;;;21.82;71.64
54666;BME280;40566;50.006;36.180;2023-05-24T13:25:38;99626.00;;;21.73;71.94
54666;BME280;40566;50.006;36.180;2023-05-24T13:30:39;99615.44;;;21.62;71.81
54666;BME280;40566;50.006;36.180;2023-05-24T13:35:40;99621.44;;;21.53;71.60
54666;BME280;40566;50.006;36.180;2023-05-24T13:40:40;99635.16;;;21.45;71.41
54666;BME280;40566;50.006;36.180;2023-05-24T13:45:42;99623.84;;;21.32;71.49
54666;BME280;40566;50.006;36.180;2023-05-24T13:50:43;99639.47;;;21.22;71.79
54666;BME280;40566;50.006;36.180;2023-05-24T13:55:44;99640.28;;;21.11;72.01
54666;BME280;40566;50.006;36.180;2023-05-24T14:00:44;99639.66;;;21.08;71.94
54666;BME280;40566;50.006;36.180;2023-05-24T14:05:45;99628.75;;;21.01;72.00
54666;BME280;40566;50.006;36.180;2023-05-24T14:10:45;99639.59;;;20.96;72.62
54666;BME280;40566;50.006;36.180;2023-05-24T14:15:49;99639.22;;;20.90;72.52
54666;BME280;40566;50.006;36.180;2023-05-24T14:20:52;99631.25;;;20.78;72.71
54666;BME280;40566;50.006;36.180;2023-05-24T14:25:53;99646.72;;;20.57;73.05
54666;BME280;40566;50.006;36.180;2023-05-24T14:30:53;99654.75;;;20.43;73.14
54666;BME280;40566;50.006;36.180;2023-05-24T14:35:54;99669.81;;;20.28;73.77
54666;BME280;40566;50.006;36.180;2023-05-24T14:40:55;99675.06;;;20.15;74.30
54666;BME280;40566;50.006;36.180;2023-05-24T14:45:57;99684.94;;;19.99;74.57
54666;BME280;40566;50.006;36.180;2023-05-24T14:50:59;99676.72;;;19.78;74.93
54666;BME280;40566;50.006;36.180;2023-05-24T14:55:59;99672.59;;;19.61;75.22
54666;BME280;40566;50.006;36.180;2023-05-24T15:01:01;99661.94;;;19.50;75.21
54666;BME280;40566;50.006;36.180;2023-05-24T15:06:03;99667.88;;;19.39;75.03
54666;BME280;40566;50.006;36.180;2023-05-24T15:11:03;99668.91;;;19.24;75.25
54666;BME280;40566;50.006;36.180;2023-05-24T15:16:05;99668.94;;;19.09;75.44
54666;BME280;40566;50.006;36.180;2023-05-24T15:21:08;99664.19;;;19.01;75.42
54666;BME280;40566;50.006;36.180;2023-05-24T15:26:09;99668.56;;;18.88;75.89
54666;BME280;40566;50.006;36.180;2023-05-24T15:31:10;99688.97;;;18.83;76.11
54666;BME280;40566;50.006;36.180;2023-05-24T15:36:10;99691.94;;;18.77;76.24
54666;BME280;40566;50.006;36.180;2023-05-24T15:41:13;99701.03;;;18.71;76.37
54666;BME280;40566;50.006;36.180;2023-05-24T15:46:14;99714.41;;;18.67;76.47
54666;BME280;40566;50.006;36.180;2023-05-24T15:51:14;99711.06;;;18.65;76.63
54666;BME280;40566;50.006;36.180;2023-05-24T15:56:15;99724.53;;;18.58;76.84
54666;BME280;40566;50.006;36.180;2023-05-24T16:01:17;99704.50;;;18.57;76.77
54666;BME280;40566;50.006;36.180;2023-05-24T16:06:17;99718.72;;;18.53;77.08
54666;BME280;40566;50.006;36.180;2023-05-24T16:11:18;99724.25;;;18.49;77.34
54666;BME280;40566;50.006;36.180;2023-05-24T16:16:18;99718.16;;;18.48;77.46
54666;BME280;40566;50.006;36.180;2023-05-24T16:21:22;99709.84;;;18.41;77.46
54666;BME280;40566;50.006;36.180;2023-05-24T16:26:23;99709.00;;;18.41;77.66
54666;BME280;40566;50.006;36.180;2023-05-24T16:31:24;99703.03;;;18.39;77.71
54666;BME280;40566;50.006;36.180;2023-05-24T16:36:25;99699.56;;;18.38;77.70
54666;BME280;40566;50.006;36.180;2023-05-24T16:41:28;99704.97;;;18.35;77.88
54666;BME280;40566;50.006;36.180;2023-05-24T16:46:34;99704.13;;;18.35;77.94
54666;BME280;40566;50.006;36.180;2023-05-24T16:51:38;99704.41;;;18.30;78.26
54666;BME280;40566;50.006;36.180;2023-05-24T16:56:39;99706.38;;;18.27;78.17
54666;BME280;40566;50.006;36.180;2023-05-24T17:01:39;99709.25;;;18.22;78.46
54666;BME280;40566;50.006;36.180;2023-05-24T17:06:40;99701.41;;;18.22;78.59
54666;BME280;40566;50.006;36.180;2023-05-24T17:11:42;99705.91;;;18.20;78.66
54666;BME280;40566;50.006;36.180;2023-05-24T17:16:43;99708.72;;;18.17;78.78
54666;BME280;40566;50.006;36.180;2023-05-24T17:21:43;99708.97;;;18.12;79.07
54666;BME280;40566;50.006;36.180;2023-05-24T17:26:45;99703.81;;;18.11;79.10
54666;BME280;40566;50.006;36.180;2023-05-24T17:31:46;99703.06;;;18.09;78.89
54666;BME280;40566;50.006;36.180;2023-05-24T17:36:47;99714.84;;;18.01;79.25
54666;BME280;40566;50.006;36.180;2023-05-24T17:41:47;99715.22;;;17.95;79.38
54666;BME280;40566;50.006;36.180;2023-05-24T17:46:48;99714.47;;;17.93;79.61
54666;BME280;40566;50.006;36.180;2023-05-24T17:51:50;99716.41;;;17.90;79.64
54666;BME280;40566;50.006;36.180;2023-05-24T17:56:50;99711.00;;;17.93;79.70
54666;BME280;40566;50.006;36.180;2023-05-24T18:01:51;99713.59;;;17.93;79.50
54666;BME280;40566;50.006;36.180;2023-05-24T18:06:52;99712.09;;;17.89;79.76
54666;BME280;40566;50.006;36.180;2023-05-24T18:11:52;99713.22;;;17.84;79.65
54666;BME280;40566;50.006;36.180;2023-05-24T18:16:53;99721.91;;;17.85;79.94
54666;BME280;40566;50.006;36.180;2023-05-24T18:21:54;99723.84;;;17.81;79.83
54666;BME280;40566;50.006;36.180;2023-05-24T18:26:54;99718.63;;;17.81;79.69
54666;BME280;40566;50.006;36.180;2023-05-24T18:31:55;99717.00;;;17.79;79.97
54666;BME280;40566;50.006;36.180;2023-05-24T18:36:55;99715.31;;;17.78;79.70
54666;BME280;40566;50.006;36.180;2023-05-24T18:41:56;99718.09;;;17.75;79.73
54666;BME280;40566;50.006;36.180;2023-05-24T18:46:56;99718.53;;;17.67;79.95
54666;BME280;40566;50.006;36.180;2023-05-24T18:51:57;99718.81;;;17.62;80.11
54666;BME280;40566;50.006;36.180;2023-05-24T18:56:58;99715.53;;;17.59;79.84
54666;BME280;40566;50.006;36.180;2023-05-24T19:02:04;99711.41;;;17.55;79.84
54666;BME280;40566;50.006;36.180;2023-05-24T19:07:05;99713.47;;;17.50;80.13
54666;BME280;40566;50.006;36.180;2023-05-24T19:12:06;99716.25;;;17.47;79.96
54666;BME280;40566;50.006;36.180;2023-05-24T19:17:10;99721.47;;;17.47;79.60
54666;BME280;40566;50.006;36.180;2023-05-24T19:22:10;99716.41;;;17.43;79.64
54666;BME280;40566;50.006;36.180;2023-05-24T19:27:11;99707.06;;;17.39;79.75
54666;BME280;40566;50.006;36.180;2023-05-24T19:32:11;99706.41;;;17.36;79.77
54666;BME280;40566;50.006;36.180;2023-05-24T19:37:12;99697.88;;;17.32;79.92
54666;BME280;40566;50.006;36.180;2023-05-24T19:42:13;99697.88;;;17.32;79.74
54666;BME280;40566;50.006;36.180;2023-05-24T19:47:13;99697.88;;;17.32;79.56
54666;BME280;40566;50.006;36.180;2023-05-24T19:52:14;99696.09;;;17.33;79.65
54666;BME280;40566;50.006;36.180;2023-05-24T19:57:17;99688.25;;;17.33;79.81
54666;BME280;40566;50.006;36.180;2023-05-24T20:02:18;99696.19;;;17.31;79.64
54666;BME280;40566;50.006;36.180;2023-05-24T20:07:18;99700.59;;;17.31;79.66
54666;BME280;40566;50.006;36.180;2023-05-24T20:12:22;99700.66;;;17.29;79.60
54666;BME280;40566;50.006;36.180;2023-05-24T20:17:23;99697.47;;;17.24;79.75
54666;BME280;40566;50.006;36.180;2023-05-24T20:22:23;99698.41;;;17.23;79.68
54666;BME280;40566;50.006;36.180;2023-05-24T20:27:24;99697.72;;;17.19;79.71
54666;BME280;40566;50.006;36.180;2023-05-24T20:32:24;99699.66;;;17.16;79.70
54666;BME280;40566;50.006;36.180;2023-05-24T20:37:25;99699.75;;;17.14;79.81
54666;BME280;40566;50.006;36.180;2023-05-24T20:42:25;99702.47;;;17.13;79.88
54666;BME280;40566;50.006;36.180;2023-05-24T20:47:26;99687.88;;;17.09;79.65
54666;BME280;40566;50.006;36.180;2023-05-24T20:52:27;99692.50;;;17.03;79.94
54666;BME280;40566;50.006;36.180;2023-05-24T20:57:27;99697.25;;;16.97;80.04
54666;BME280;40566;50.006;36.180;2023-05-24T21:02:28;99682.41;;;16.97;80.22
54666;BME280;40566;50.006;36.180;2023-05-24T21:07:29;99687.81;;;16.94;80.02
54666;BME280;40566;50.006;36.180;2023-05-24T21:12:29;99680.13;;;16.91;79.95
54666;BME280;40566;50.006;36.180;2023-05-24T21:17:30;99683.00;;;16.87;79.79
54666;BME280;40566;50.006;36.180;2023-05-24T21:22:32;99685.84;;;16.82;79.95
54666;BME280;40566;50.006;36.180;2023-05-24T21:27:32;99680.78;;;16.79;79.88
54666;BME280;40566;50.006;36.180;2023-05-24T21:32:33;99685.31;;;16.75;79.78
54666;BME280;40566;50.006;36.180;2023-05-24T21:37:33;99690.81;;;16.71;79.84
54666;BME280;40566;50.006;36.180;2023-05-24T21:42:35;99685.56;;;16.71;79.97
54666;BME280;40566;50.006;36.180;2023-05-24T21:47:36;99697.88;;;16.69;79.85
54666;BME280;40566;50.006;36.180;2023-05-24T21:52:37;99703.09;;;16.69;80.11
54666;BME280;40566;50.006;36.180;2023-05-24T21:57:38;99712.69;;;16.68;80.25
54666;BME280;40566;50.006;36.180;2023-05-24T22:02:39;99711.00;;;16.67;80.44
54666;BME280;40566;50.006;36.180;2023-05-24T22:07:39;99723.31;;;16.65;80.52
54666;BME280;40566;50.006;36.180;2023-05-24T22:12:40;99721.69;;;16.62;80.42
54666;BME280;40566;50.006;36.180;2023-05-24T22:17:41;99732.31;;;16.59;80.27
54666;BME280;40566;50.006;36.180;2023-05-24T22:22:42;99730.78;;;16.55;80.40
54666;BME280;40566;50.006;36.180;2023-05-24T22:27:52;99733.47;;;16.54;80.26
54666;BME280;40566;50.006;36.180;2023-05-24T22:32:55;99737.78;;;16.55;80.17
54666;BME280;40566;50.006;36.180;2023-05-24T22:37:55;99743.00;;;16.55;80.20
54666;BME280;40566;50.006;36.180;2023-05-24T22:42:57;99731.63;;;16.56;80.29
54666;BME280;40566;50.006;36.180;2023-05-24T22:47:58;99733.41;;;16.55;80.24
54666;BME280;40566;50.006;36.180;2023-05-24T22:52:58;99738.44;;;16.58;80.10
54666;BME280;40566;50.006;36.180;2023-05-24T22:57:59;99740.28;;;16.56;80.29
54666;BME280;40566;50.006;36.180;2023-05-24T23:02:59;99742.91;;;16.56;80.39
54666;BME280;40566;50.006;36.180;2023-05-24T23:08:00;99727.16;;;16.58;80.42
54666;BME280;40566;50.006;36.180;2023-05-24T23:13:02;99727.16;;;16.58;80.31
54666;BME280;40566;50.006;36.180;2023-05-24T23:18:03;99716.72;;;16.58;80.27
54666;BME280;40566;50.006;36.180;2023-05-24T23:23:08;99717.47;;;16.60;80.16
54666;BME280;40566;50.006;36.180;2023-05-24T23:28:10;99723.63;;;16.59;80.20
54666;BME280;40566;50.006;36.180;2023-05-24T23:33:10;99735.00;;;16.58;80.17
54666;BME280;40566;50.006;36.180;2023-05-24T23:38:15;99723.53;;;16.60;80.46
54666;BME280;40566;50.006;36.180;2023-05-24T23:43:15;99732.31;;;16.59;80.26
54666;BME280;40566;50.006;36.180;2023-05-24T23:48:16;99743.66;;;16.58;80.18
54666;BME280;40566;50.006;36.180;2023-05-24T23:53:16;99729.09;;;16.54;80.29
54666;BME280;40566;50.006;36.180;2023-05-24T23:58:17;99740.47;;;16.53;80.45
